Time;durP1;ratioP1;P1;durP2;ratioP2;P2;SDS_P1;SDS_P2;PMS_P1;PMS_P2;Temp;Humidity;BMP_temperature;BMP_pressure;BME280_temperature;BME280_humidity;BME280_pressure;Samples;Min_cycle;Max_cycle;Signal;HPM_P1;HPM_P2
2023/09/18 00:02:31;;;;;;;16.95;8.13;;;20.60;99.90;;;;;;5013370;28;20049;-57
2023/09/18 00:05:35;;;;;;;15.25;9.20;;;20.60;99.90;;;;;;5005283;28;20041;-57
2023/09/18 00:08:39;;;;;;;14.85;9.38;;;20.60;99.90;;;;;;5013048;28;20053;-57
2023/09/18 00:11:43;;;;;;;15.38;9.32;;;20.50;99.90;;;;;;5012490;28;20041;-56
2023/09/18 00:14:50;;;;;;;18.10;9.68;;;20.50;99.90;;;;;;5012539;28;20049;-53
2023/09/18 00:17:55;;;;;;;15.68;9.25;;;20.40;99.90;;;;;;5013026;28;20049;-54
2023/09/18 00:20:59;;;;;;;15.65;9.20;;;20.40;99.90;;;;;;5006721;28;20049;-56
2023/09/18 00:24:04;;;;;;;18.40;8.90;;;20.40;99.90;;;;;;5012838;28;20041;-56
2023/09/18 00:27:10;;;;;;;19.52;9.25;;;20.40;99.90;;;;;;5013045;28;20040;-57
2023/09/18 00:30:15;;;;;;;16.85;9.30;;;20.30;99.90;;;;;;5007453;28;20113;-55
2023/09/18 00:33:20;;;;;;;21.85;10.18;;;20.30;99.90;;;;;;5012713;28;20049;-55
2023/09/18 00:36:24;;;;;;;17.23;9.93;;;20.30;99.90;;;;;;5012791;28;20048;-56
2023/09/18 00:39:28;;;;;;;24.00;10.70;;;20.30;99.90;;;;;;5018096;23;20049;-52
2023/09/18 00:42:32;;;;;;;19.13;10.35;;;20.30;99.90;;;;;;5010426;28;20052;-50
2023/09/18 00:45:42;;;;;;;15.27;10.20;;;20.30;99.90;;;;;;5010999;28;20041;-50
2023/09/18 00:48:46;;;;;;;15.30;9.95;;;20.20;99.90;;;;;;5011630;28;20049;-50
2023/09/18 00:51:51;;;;;;;16.83;10.73;;;20.20;99.90;;;;;;5004702;28;20045;-51
2023/09/18 00:54:56;;;;;;;16.08;10.35;;;20.20;99.90;;;;;;5012054;28;20049;-49
2023/09/18 00:58:01;;;;;;;16.55;11.13;;;20.10;99.90;;;;;;5011455;28;20048;-53
2023/09/18 01:01:05;;;;;;;20.73;11.13;;;20.10;99.90;;;;;;5011125;28;20037;-50
2023/09/18 01:04:09;;;;;;;19.65;11.70;;;20.00;99.90;;;;;;5011196;28;20044;-49
2023/09/18 01:07:13;;;;;;;23.05;10.48;;;19.90;99.90;;;;;;5011394;28;20401;-53
2023/09/18 01:10:19;;;;;;;19.70;11.23;;;19.90;99.90;;;;;;5011713;28;20053;-50
2023/09/18 01:13:30;;;;;;;18.98;11.65;;;19.80;99.90;;;;;;5012229;28;20049;-50
2023/09/18 01:16:50;;;;;;;18.83;10.77;;;19.60;99.90;;;;;;5011923;28;20045;-51
2023/09/18 01:19:54;;;;;;;22.67;12.00;;;19.70;99.90;;;;;;5011656;28;20413;-51
2023/09/18 01:22:58;;;;;;;19.05;11.00;;;19.70;99.90;;;;;;5012060;28;20053;-52
2023/09/18 01:26:02;;;;;;;24.10;11.60;;;19.70;99.90;;;;;;5012028;28;20045;-51
2023/09/18 01:29:06;;;;;;;16.20;10.70;;;19.80;99.90;;;;;;5008554;28;20045;-49
2023/09/18 01:32:10;;;;;;;21.35;12.43;;;19.80;99.90;;;;;;5012066;28;20065;-48
2023/09/18 01:35:16;;;;;;;18.38;11.05;;;19.80;99.90;;;;;;5010435;28;20056;-52
2023/09/18 01:38:22;;;;;;;18.80;10.73;;;19.80;99.90;;;;;;5008210;28;20044;-50
2023/09/18 01:41:26;;;;;;;19.52;11.20;;;19.80;99.90;;;;;;5011769;28;20057;-51
2023/09/18 01:44:31;;;;;;;19.80;10.70;;;19.90;99.90;;;;;;5004109;28;20413;-50
2023/09/18 01:47:36;;;;;;;16.50;10.15;;;19.90;99.90;;;;;;4999367;28;20064;-49
2023/09/18 01:50:41;;;;;;;18.92;11.13;;;19.90;99.90;;;;;;5011443;28;20049;-49
2023/09/18 01:53:45;;;;;;;23.02;11.30;;;19.80;99.90;;;;;;5004746;28;20037;-52
2023/09/18 01:56:50;;;;;;;18.92;10.65;;;19.70;99.90;;;;;;5010525;28;20045;-50
2023/09/18 01:59:54;;;;;;;14.65;10.27;;;19.70;99.90;;;;;;5010550;28;20053;-52
2023/09/18 02:02:58;;;;;;;18.35;10.75;;;19.70;99.90;;;;;;5009992;28;20056;-52
2023/09/18 02:06:02;;;;;;;19.70;11.48;;;19.70;99.90;;;;;;5010567;28;20519;-49
2023/09/18 02:09:10;;;;;;;16.75;10.93;;;19.70;99.90;;;;;;5009133;28;20459;-48
2023/09/18 02:12:17;;;;;;;20.45;10.52;;;19.70;99.90;;;;;;5016727;28;20049;-50
2023/09/18 02:15:21;;;;;;;16.23;11.00;;;19.70;99.90;;;;;;5010890;28;20041;-49
2023/09/18 02:18:25;;;;;;;17.40;10.07;;;19.70;99.90;;;;;;5009330;28;20121;-52
2023/09/18 02:21:30;;;;;;;15.60;10.02;;;19.80;99.90;;;;;;5011163;28;20053;-50
2023/09/18 02:24:34;;;;;;;16.50;9.85;;;19.90;99.90;;;;;;5010801;28;20100;-50
2023/09/18 02:27:38;;;;;;;18.35;11.40;;;20.00;99.90;;;;;;5009065;28;20392;-50
2023/09/18 02:30:42;;;;;;;20.42;10.98;;;20.00;99.90;;;;;;5010328;28;20053;-50
2023/09/18 02:33:49;;;;;;;18.40;9.50;;;20.10;99.90;;;;;;5008445;28;20424;-51
2023/09/18 02:36:53;;;;;;;17.75;10.50;;;20.10;99.90;;;;;;5011073;28;20045;-49
2023/09/18 02:39:57;;;;;;;18.45;9.75;;;20.20;99.90;;;;;;5009047;28;20053;-50
2023/09/18 02:43:02;;;;;;;13.68;10.02;;;20.30;99.90;;;;;;5003802;28;20045;-50
2023/09/18 02:46:06;;;;;;;19.58;9.57;;;20.20;99.90;;;;;;5011046;28;20057;-49
2023/09/18 02:49:10;;;;;;;19.52;9.13;;;20.20;99.90;;;;;;5006747;28;20053;-49
2023/09/18 02:52:14;;;;;;;16.38;9.60;;;20.30;99.90;;;;;;5009614;28;20040;-51
2023/09/18 02:55:18;;;;;;;14.05;9.75;;;20.30;99.90;;;;;;5009815;28;20053;-51
2023/09/18 02:58:25;;;;;;;20.48;9.82;;;20.20;99.90;;;;;;5005584;28;20049;-52
2023/09/18 03:01:30;;;;;;;16.05;10.60;;;20.10;99.90;;;;;;5010839;28;20416;-50
2023/09/18 03:04:34;;;;;;;14.70;9.93;;;20.00;99.90;;;;;;5001201;28;20042;-51
2023/09/18 03:07:39;;;;;;;20.33;10.60;;;19.90;99.90;;;;;;5010216;28;20045;-50
2023/09/18 03:10:43;;;;;;;15.32;9.75;;;19.80;99.90;;;;;;5013824;28;20440;-50
2023/09/18 03:13:47;;;;;;;18.25;10.82;;;19.70;99.90;;;;;;5008918;28;20441;-54
2023/09/18 03:16:53;;;;;;;17.98;9.75;;;19.50;99.90;;;;;;5013368;28;20523;-57
2023/09/18 03:19:58;;;;;;;28.85;12.23;;;19.30;99.90;;;;;;5013260;28;20044;-56
2023/09/18 03:23:02;;;;;;;17.60;9.98;;;19.20;99.90;;;;;;5012885;28;20109;-54
2023/09/18 03:26:06;;;;;;;19.90;10.75;;;19.20;99.90;;;;;;5013401;28;20412;-52
2023/09/18 03:29:10;;;;;;;19.13;11.27;;;19.00;99.90;;;;;;5010587;28;20057;-56
2023/09/18 03:32:15;;;;;;;19.80;10.75;;;19.00;99.90;;;;;;5013153;28;20404;-56
2023/09/18 03:35:20;;;;;;;17.08;10.60;;;19.00;99.90;;;;;;5012878;28;20065;-53
2023/09/18 03:38:25;;;;;;;25.02;11.75;;;19.00;99.90;;;;;;5012027;28;20048;-56
2023/09/18 03:41:33;;;;;;;26.95;12.13;;;18.80;99.90;;;;;;5013066;28;20045;-54
2023/09/18 03:44:38;;;;;;;25.73;12.43;;;18.70;99.90;;;;;;5012663;28;20037;-54
2023/09/18 03:47:42;;;;;;;18.67;11.30;;;18.80;99.90;;;;;;5010170;28;20033;-53
2023/09/18 03:50:47;;;;;;;18.80;11.15;;;18.70;99.90;;;;;;5013405;28;20041;-57
2023/09/18 03:53:51;;;;;;;18.77;11.95;;;18.70;99.90;;;;;;5012148;28;20053;-55
2023/09/18 03:56:55;;;;;;;18.75;10.98;;;18.70;99.90;;;;;;5012238;28;20041;-56
2023/09/18 03:59:59;;;;;;;17.25;12.00;;;18.70;99.90;;;;;;5013295;28;20049;-57
2023/09/18 04:03:03;;;;;;;22.08;13.15;;;18.70;99.90;;;;;;5013061;28;20507;-53
2023/09/18 04:06:07;;;;;;;20.67;12.70;;;18.60;99.90;;;;;;5011980;28;20037;-57
2023/09/18 04:09:11;;;;;;;23.83;12.27;;;18.50;99.90;;;;;;5013349;28;20037;-55
2023/09/18 04:12:15;;;;;;;23.75;12.48;;;18.50;99.90;;;;;;5007051;28;20512;-53
2023/09/18 04:15:20;;;;;;;16.38;11.60;;;18.40;99.90;;;;;;5008293;28;20048;-57
2023/09/18 04:18:24;;;;;;;21.77;11.40;;;18.30;99.90;;;;;;5012382;28;20045;-53
2023/09/18 04:21:31;;;;;;;20.42;11.80;;;18.30;99.90;;;;;;5011707;28;20507;-52
2023/09/18 04:24:35;;;;;;;17.60;12.10;;;18.30;99.90;;;;;;5010131;28;20041;-57
2023/09/18 04:27:40;;;;;;;22.02;13.13;;;18.30;99.90;;;;;;5012269;28;20408;-55
2023/09/18 04:30:44;;;;;;;24.65;12.60;;;18.40;99.90;;;;;;5007955;28;20049;-55
2023/09/18 04:33:48;;;;;;;20.98;12.68;;;18.40;99.90;;;;;;5011204;28;20033;-52
2023/09/18 04:36:52;;;;;;;20.10;12.38;;;18.40;99.90;;;;;;5012065;28;20045;-55
2023/09/18 04:39:57;;;;;;;24.33;12.10;;;18.40;99.90;;;;;;5011562;28;20041;-53
2023/09/18 04:43:04;;;;;;;19.98;12.60;;;18.50;99.90;;;;;;5005474;28;20041;-55
2023/09/18 04:46:08;;;;;;;20.15;11.35;;;18.50;99.90;;;;;;5011600;28;20040;-51
2023/09/18 04:49:13;;;;;;;17.05;11.60;;;18.40;99.90;;;;;;5011750;28;20057;-54
2023/09/18 04:52:17;;;;;;;24.00;12.50;;;18.40;99.90;;;;;;5010719;28;20041;-55
2023/09/18 04:55:21;;;;;;;17.73;11.40;;;18.40;99.90;;;;;;5011383;28;20060;-56
2023/09/18 04:58:25;;;;;;;19.77;11.60;;;18.50;99.90;;;;;;5012207;28;20041;-56
2023/09/18 05:01:30;;;;;;;16.75;10.73;;;18.50;99.90;;;;;;5008168;28;20036;-54
2023/09/18 05:04:34;;;;;;;20.48;11.10;;;18.50;99.90;;;;;;5011838;28;20065;-52
2023/09/18 05:07:37;;;;;;;17.80;10.05;;;18.50;99.90;;;;;;5011477;28;20045;-54
2023/09/18 05:10:41;;;;;;;14.15;9.32;;;18.50;99.90;;;;;;5010479;28;20052;-56
2023/09/18 05:13:46;;;;;;;18.60;10.38;;;18.60;99.90;;;;;;5011761;28;20056;-54
2023/09/18 05:16:50;;;;;;;17.02;10.25;;;18.80;99.90;;;;;;5012074;28;20040;-52
2023/09/18 05:19:54;;;;;;;15.80;10.27;;;18.90;99.90;;;;;;5009296;28;20512;-55
2023/09/18 05:22:59;;;;;;;15.95;10.32;;;18.90;99.90;;;;;;5011768;28;20096;-52
2023/09/18 05:26:04;;;;;;;20.75;10.40;;;18.90;99.90;;;;;;5012056;28;20500;-54
2023/09/18 05:29:10;;;;;;;18.45;10.23;;;18.90;99.90;;;;;;5009532;28;20520;-53
2023/09/18 05:32:13;;;;;;;21.58;10.90;;;18.70;99.90;;;;;;5011126;28;20037;-54
2023/09/18 05:35:17;;;;;;;18.95;11.05;;;18.70;99.90;;;;;;5009443;28;20056;-55
2023/09/18 05:38:21;;;;;;;24.55;12.07;;;18.80;99.90;;;;;;5010478;28;20507;-55
2023/09/18 05:41:28;;;;;;;21.67;10.75;;;18.80;99.90;;;;;;5009409;28;20076;-56
2023/09/18 05:44:33;;;;;;;16.63;10.43;;;18.80;99.90;;;;;;5010557;28;20052;-55
2023/09/18 05:47:38;;;;;;;22.73;10.15;;;19.00;99.90;;;;;;5009879;28;20789;-52
2023/09/18 05:50:42;;;;;;;17.27;9.57;;;19.30;99.90;;;;;;5010698;28;20044;-53
2023/09/18 05:53:46;;;;;;;17.02;9.27;;;19.70;99.90;;;;;;5010051;28;20572;-53
2023/09/18 05:56:50;;;;;;;14.73;8.52;;;20.20;99.90;;;;;;5009805;28;20069;-56
2023/09/18 05:59:57;;;;;;;20.00;8.45;;;21.00;99.90;;;;;;5012184;28;20045;-50
2023/09/18 06:03:00;;;;;;;13.77;6.88;;;21.80;99.90;;;;;;5003280;28;20037;-53
2023/09/18 06:06:08;;;;;;;17.35;8.45;;;22.60;99.90;;;;;;4998966;28;20037;-51
2023/09/18 06:09:12;;;;;;;15.73;6.45;;;23.30;99.90;;;;;;5005428;28;20045;-50
2023/09/18 06:12:17;;;;;;;11.95;6.00;;;24.10;99.90;;;;;;5008142;28;20040;-51
2023/09/18 06:15:21;;;;;;;14.82;6.35;;;24.60;99.90;;;;;;5004388;28;20400;-53
2023/09/18 06:18:25;;;;;;;13.57;5.25;;;24.80;99.90;;;;;;5007131;28;20048;-52
2023/09/18 06:21:29;;;;;;;11.05;5.00;;;25.30;99.90;;;;;;5006944;28;20053;-51
2023/09/18 06:24:34;;;;;;;24.25;6.72;;;26.00;99.90;;;;;;5003801;28;20037;-50
2023/09/18 06:27:39;;;;;;;12.48;5.93;;;26.30;99.90;;;;;;5007781;28;20052;-54
2023/09/18 06:30:42;;;;;;;17.50;6.90;;;25.40;99.90;;;;;;5008020;28;20049;-55
2023/09/18 06:33:46;;;;;;;16.48;6.32;;;25.10;99.90;;;;;;5005540;28;20041;-52
2023/09/18 06:36:50;;;;;;;17.98;5.60;;;26.30;99.90;;;;;;5009678;28;20065;-52
2023/09/18 06:39:56;;;;;;;13.75;5.82;;;27.10;99.90;;;;;;5015748;23;20061;-56
2023/09/18 06:43:00;;;;;;;18.35;6.22;;;27.90;99.90;;;;;;4985816;28;20501;-55
2023/09/18 06:46:06;;;;;;;11.52;5.57;;;29.00;99.90;;;;;;4989521;28;20809;-54
2023/09/18 06:49:10;;;;;;;9.60;5.20;;;30.10;99.90;;;;;;4998205;28;20053;-57
2023/09/18 06:52:14;;;;;;;12.50;5.03;;;31.20;99.90;;;;;;5015313;28;20681;-57
2023/09/18 06:55:18;;;;;;;12.73;5.15;;;31.90;99.70;;;;;;5011518;28;20053;-58
2023/09/18 06:58:22;;;;;;;11.95;5.05;;;32.40;98.60;;;;;;5007834;28;20064;-54
2023/09/18 07:01:28;;;;;;;8.95;3.92;;;32.40;97.30;;;;;;5004027;28;20044;-58
2023/09/18 07:04:31;;;;;;;12.48;4.57;;;32.60;97.20;;;;;;5002290;28;21891;-57
2023/09/18 07:07:35;;;;;;;12.98;4.72;;;33.00;96.40;;;;;;5007969;28;20044;-60
2023/09/18 07:10:40;;;;;;;10.55;4.57;;;33.20;95.30;;;;;;5009229;28;20045;-58
2023/09/18 07:13:44;;;;;;;11.52;4.75;;;32.80;95.40;;;;;;5006973;28;20049;-58
2023/09/18 07:16:48;;;;;;;9.02;4.45;;;31.80;95.70;;;;;;5012939;28;20049;-58
2023/09/18 07:19:52;;;;;;;13.20;5.03;;;30.90;96.20;;;;;;5009620;28;20412;-58
2023/09/18 07:22:56;;;;;;;10.35;4.72;;;29.90;97.10;;;;;;5013021;28;20396;-55
2023/09/18 07:26:01;;;;;;;10.93;4.88;;;29.10;99.20;;;;;;5003375;28;20041;-59
2023/09/18 07:29:05;;;;;;;14.38;5.30;;;28.70;99.40;;;;;;5008780;28;20045;-58
2023/09/18 07:32:09;;;;;;;16.70;5.68;;;28.70;99.30;;;;;;5009201;28;20530;-57
2023/09/18 07:35:14;;;;;;;10.40;4.22;;;29.20;98.00;;;;;;5007022;28;20045;-56
2023/09/18 07:38:21;;;;;;;7.40;4.10;;;30.60;97.60;;;;;;5011206;28;20045;-57
2023/09/18 07:41:25;;;;;;;11.30;4.60;;;31.60;95.90;;;;;;5009737;28;20436;-56
2023/09/18 07:44:29;;;;;;;11.27;4.10;;;31.80;95.00;;;;;;5011305;28;20041;-58
2023/09/18 07:47:33;;;;;;;13.45;5.28;;;32.10;94.30;;;;;;5000648;28;20053;-60
2023/09/18 07:50:37;;;;;;;12.25;5.03;;;31.70;94.30;;;;;;5008987;28;20045;-57
2023/09/18 07:53:42;;;;;;;16.80;5.20;;;30.50;95.60;;;;;;5018560;28;20050;-56
2023/09/18 07:56:46;;;;;;;14.80;4.93;;;29.90;96.70;;;;;;5007531;28;20048;-56
2023/09/18 07:59:51;;;;;;;11.85;5.40;;;29.70;96.20;;;;;;5010585;28;20048;-57
2023/09/18 08:03:00;;;;;;;16.60;5.22;;;29.70;96.80;;;;;;5008581;28;20392;-58
2023/09/18 08:06:04;;;;;;;10.80;4.72;;;30.30;96.60;;;;;;5013155;28;20049;-57
2023/09/18 08:09:15;;;;;;;13.80;5.05;;;30.50;96.40;;;;;;5005300;28;20060;-57
2023/09/18 08:12:19;;;;;;;14.33;5.10;;;29.80;96.80;;;;;;5004902;28;20041;-60
2023/09/18 08:15:23;;;;;;;17.15;6.75;;;29.00;98.00;;;;;;5009170;28;20292;-55
2023/09/18 08:18:27;;;;;;;16.95;5.53;;;28.50;99.90;;;;;;5008301;28;20064;-54
2023/09/18 08:21:31;;;;;;;10.63;4.65;;;28.80;99.90;;;;;;5003867;28;20045;-55
2023/09/18 08:24:35;;;;;;;11.07;5.40;;;29.80;99.90;;;;;;5007461;28;20048;-57
2023/09/18 08:27:41;;;;;;;9.40;5.03;;;29.80;99.10;;;;;;5009419;28;20041;-54
2023/09/18 08:30:47;;;;;;;12.57;4.95;;;30.70;98.00;;;;;;5006159;28;20045;-57
2023/09/18 08:33:50;;;;;;;12.20;5.50;;;31.10;96.90;;;;;;5010068;28;20041;-57
2023/09/18 08:36:54;;;;;;;15.32;5.05;;;29.00;97.70;;;;;;5008334;28;21489;-58
2023/09/18 08:40:00;;;;;;;14.85;5.47;;;28.40;98.10;;;;;;5016758;28;20134;-56
2023/09/18 08:43:05;;;;;;;12.00;5.80;;;27.90;98.50;;;;;;5002334;28;20057;-56
2023/09/18 08:46:09;;;;;;;12.63;5.35;;;26.80;99.90;;;;;;5006097;28;20049;-53
2023/09/18 08:49:14;;;;;;;13.60;5.90;;;27.20;99.90;;;;;;5004981;28;20299;-58
2023/09/18 08:52:18;;;;;;;10.65;5.88;;;28.20;99.90;;;;;;5007496;28;20049;-57
2023/09/18 08:55:23;;;;;;;11.80;5.43;;;29.70;98.70;;;;;;5007455;28;20060;-55
2023/09/18 08:58:37;;;;;;;16.42;5.43;;;30.30;97.40;;;;;;5002720;28;20057;-55
2023/09/18 09:01:41;;;;;;;16.38;5.25;;;31.00;97.00;;;;;;5009008;28;20052;-58
2023/09/18 09:04:45;;;;;;;17.25;5.22;;;31.20;95.80;;;;;;5003585;28;20050;-58
2023/09/18 09:07:50;;;;;;;14.75;5.07;;;32.40;94.80;;;;;;5006542;28;20045;-58
2023/09/18 09:10:54;;;;;;;11.43;4.93;;;31.80;93.60;;;;;;5005994;28;20050;-56
2023/09/18 09:14:28;;;;;;;13.90;5.57;;;30.80;94.90;;;;;;5010780;28;20053;-57
2023/09/18 09:17:32;;;;;;;11.32;4.90;;;32.60;94.00;;;;;;5011797;28;20052;-57
2023/09/18 09:20:36;;;;;;;16.23;5.57;;;31.50;93.80;;;;;;5007312;28;20037;-57
2023/09/18 09:23:52;;;;;;;12.38;4.75;;;31.80;93.50;;;;;;5007295;28;20041;-56
2023/09/18 09:27:00;;;;;;;7.60;4.30;;;33.70;93.30;;;;;;5011103;28;20048;-58
2023/09/18 09:30:05;;;;;;;8.38;3.90;;;34.30;90.70;;;;;;5003618;28;20043;-58
2023/09/18 09:33:12;;;;;;;6.45;2.70;;;33.40;90.20;;;;;;5008297;28;20049;-59
2023/09/18 09:36:15;;;;;;;10.23;3.50;;;35.20;85.20;;;;;;5004055;28;20048;-58
2023/09/18 09:39:23;;;;;;;6.32;2.67;;;33.80;84.00;;;;;;5005244;28;20515;-56
2023/09/18 09:42:28;;;;;;;11.93;3.47;;;33.20;84.30;;;;;;5008923;28;20057;-54
2023/09/18 09:45:36;;;;;;;5.97;3.00;;;31.60;84.90;;;;;;5008565;28;20508;-56
2023/09/18 09:48:40;;;;;;;9.15;3.47;;;31.70;84.70;;;;;;5005307;28;20053;-56
2023/09/18 09:51:45;;;;;;;6.28;2.90;;;30.90;84.20;;;;;;5004417;28;20045;-57
2023/09/18 09:54:49;;;;;;;10.35;3.17;;;30.40;84.80;;;;;;5003482;28;20102;-54
2023/09/18 09:57:59;;;;;;;8.23;2.85;;;30.60;83.80;;;;;;5009779;28;20044;-58
2023/09/18 10:01:08;;;;;;;6.40;3.72;;;29.70;85.90;;;;;;5004873;28;20041;-55
2023/09/18 10:04:17;;;;;;;8.05;3.20;;;29.10;87.70;;;;;;5006361;28;20045;-57
2023/09/18 10:07:21;;;;;;;11.00;3.42;;;30.80;87.20;;;;;;5004044;28;20033;-59
2023/09/18 10:10:32;;;;;;;8.43;3.45;;;32.40;84.90;;;;;;5006892;28;20065;-54
2023/09/18 10:14:00;;;;;;;8.48;3.78;;;32.70;84.10;;;;;;5002168;28;20543;-57
2023/09/18 10:17:19;;;;;;;5.63;2.92;;;32.00;86.70;;;;;;5005736;28;20053;-58
2023/09/18 10:20:26;;;;;;;8.52;3.22;;;31.30;86.50;;;;;;5005257;28;20045;-54
2023/09/18 10:23:50;;;;;;;7.85;2.97;;;32.10;87.50;;;;;;5003596;28;20045;-56
2023/09/18 10:27:00;;;;;;;11.13;3.45;;;31.80;86.90;;;;;;5004803;28;20036;-57
2023/09/18 10:30:10;;;;;;;8.20;3.33;;;31.50;87.90;;;;;;4996468;28;20041;-58
2023/09/18 10:33:16;;;;;;;9.02;3.30;;;31.50;89.30;;;;;;5009502;28;20045;-55
2023/09/18 10:36:22;;;;;;;10.80;3.70;;;31.30;88.90;;;;;;5006134;28;20065;-57
2023/09/18 10:39:28;;;;;;;8.68;3.95;;;31.40;90.00;;;;;;5006664;28;20045;-56
2023/09/18 10:42:33;;;;;;;9.15;3.63;;;31.60;88.80;;;;;;5001351;28;20040;-58
2023/09/18 10:45:37;;;;;;;9.73;3.60;;;31.20;89.10;;;;;;4999233;28;20037;-56
2023/09/18 10:48:46;;;;;;;10.77;3.40;;;31.10;89.90;;;;;;5007160;28;20048;-60
2023/09/18 10:51:54;;;;;;;13.80;3.95;;;31.80;88.90;;;;;;5006202;28;20037;-57
2023/09/18 10:54:58;;;;;;;8.80;3.80;;;31.10;89.70;;;;;;5012267;28;20405;-57
2023/09/18 10:58:02;;;;;;;14.48;4.15;;;31.50;90.20;;;;;;5013206;28;20507;-58
2023/09/18 11:01:06;;;;;;;16.40;4.45;;;31.70;89.70;;;;;;5002173;28;20360;-57
2023/09/18 11:04:10;;;;;;;16.00;4.18;;;31.20;90.30;;;;;;4995769;28;20040;-55
2023/09/18 11:07:21;;;;;;;17.73;3.90;;;30.20;91.10;;;;;;5002101;28;20057;-54
2023/09/18 11:10:26;;;;;;;14.45;4.43;;;29.70;91.80;;;;;;5003607;28;20037;-57
2023/09/18 11:13:34;;;;;;;13.88;4.05;;;29.80;92.50;;;;;;5010272;28;20041;-59
2023/09/18 11:16:38;;;;;;;14.60;4.47;;;30.20;92.00;;;;;;5004736;28;20045;-57
2023/09/18 11:19:46;;;;;;;11.18;4.05;;;30.30;92.00;;;;;;5000597;28;20053;-56
2023/09/18 11:22:58;;;;;;;15.10;4.32;;;30.80;91.80;;;;;;5003339;28;20048;-56
2023/09/18 11:26:08;;;;;;;13.38;4.18;;;31.60;91.20;;;;;;5006440;28;20044;-55
2023/09/18 11:29:15;;;;;;;11.93;4.07;;;32.70;91.10;;;;;;5008584;28;20093;-57
2023/09/18 11:32:39;;;;;;;11.75;4.20;;;34.50;90.10;;;;;;5008311;28;20037;-58
2023/09/18 11:35:54;;;;;;;13.40;3.83;;;34.90;88.60;;;;;;5007830;28;20041;-57
2023/09/18 11:39:03;;;;;;;12.43;4.05;;;34.90;88.70;;;;;;5009831;28;20045;-57
2023/09/18 11:42:18;;;;;;;17.05;4.07;;;34.20;89.30;;;;;;5004746;28;20061;-57
2023/09/18 11:45:22;;;;;;;17.38;4.25;;;34.50;88.50;;;;;;5000606;28;20041;-58
2023/09/18 11:48:29;;;;;;;16.13;4.50;;;34.60;88.90;;;;;;4999049;28;20045;-53
2023/09/18 11:51:34;;;;;;;20.65;4.43;;;34.80;88.70;;;;;;5007864;28;20057;-57
2023/09/18 11:54:40;;;;;;;21.02;4.88;;;34.20;88.30;;;;;;5008747;28;20049;-59
2023/09/18 11:57:48;;;;;;;17.33;5.07;;;33.40;89.20;;;;;;5010383;28;20499;-57
2023/09/18 12:00:54;;;;;;;22.80;5.70;;;32.70;91.00;;;;;;5012242;28;20065;-58
2023/09/18 12:04:05;;;;;;;21.35;5.20;;;32.40;91.20;;;;;;5004161;28;20109;-57
2023/09/18 12:07:12;;;;;;;23.52;5.78;;;30.50;92.70;;;;;;5010779;28;20404;-57
2023/09/18 12:10:17;;;;;;;15.02;4.70;;;30.80;92.50;;;;;;5010714;28;20103;-58
2023/09/18 12:13:22;;;;;;;22.45;5.65;;;31.50;92.70;;;;;;5009229;28;20061;-55
2023/09/18 12:16:27;;;;;;;21.95;4.63;;;32.10;92.20;;;;;;5008063;28;20674;-57
2023/09/18 12:19:31;;;;;;;18.92;5.13;;;31.60;93.00;;;;;;5013038;28;20069;-57
2023/09/18 12:22:36;;;;;;;23.98;5.35;;;31.90;92.40;;;;;;5006503;28;20049;-54
2023/09/18 12:25:41;;;;;;;30.35;5.85;;;31.80;92.90;;;;;;5010226;28;20041;-54
2023/09/18 12:28:45;;;;;;;19.20;5.30;;;32.00;92.30;;;;;;5013006;28;20041;-57
2023/09/18 12:31:50;;;;;;;21.42;5.13;;;31.40;93.10;;;;;;5008980;28;20053;-53
2023/09/18 12:34:54;;;;;;;19.60;5.07;;;30.70;93.80;;;;;;5011155;28;20649;-54
2023/09/18 12:38:00;;;;;;;22.17;6.15;;;30.50;94.80;;;;;;5012918;28;20053;-54
2023/09/18 12:41:06;;;;;;;25.35;5.82;;;30.70;94.90;;;;;;5007572;28;20524;-56
2023/09/18 12:44:10;;;;;;;25.00;5.53;;;30.90;95.00;;;;;;5033355;23;20072;-52
2023/09/18 12:47:14;;;;;;;24.92;6.10;;;31.20;94.90;;;;;;5013553;28;20421;-57
2023/09/18 12:50:18;;;;;;;26.15;6.38;;;31.90;94.30;;;;;;5009901;28;20045;-54
2023/09/18 12:53:23;;;;;;;21.27;5.85;;;32.50;93.80;;;;;;5018938;28;20045;-54
2023/09/18 12:56:27;;;;;;;24.33;6.90;;;32.70;93.60;;;;;;5033825;28;20041;-59
2023/09/18 12:59:32;;;;;;;21.50;5.80;;;33.10;93.60;;;;;;5027378;28;20045;-58
2023/09/18 13:02:38;;;;;;;29.13;7.03;;;34.10;93.00;;;;;;5031873;28;20044;-53
2023/09/18 13:05:42;;;;;;;29.98;5.90;;;33.20;93.00;;;;;;5032055;28;20036;-58
2023/09/18 13:08:47;;;;;;;20.63;6.93;;;32.70;93.30;;;;;;5028336;28;20037;-52
2023/09/18 13:11:56;;;;;;;25.60;6.25;;;32.70;93.40;;;;;;5032239;28;20045;-53
2023/09/18 13:15:04;;;;;;;26.10;6.80;;;31.60;94.40;;;;;;5033977;28;20052;-54
2023/09/18 13:18:10;;;;;;;27.85;6.65;;;31.70;94.60;;;;;;5025614;28;20048;-55
2023/09/18 13:21:14;;;;;;;27.75;6.20;;;32.20;94.50;;;;;;5033003;28;20032;-56
2023/09/18 13:24:26;;;;;;;27.70;6.70;;;32.10;94.80;;;;;;5027210;28;20037;-56
2023/09/18 13:27:30;;;;;;;30.35;6.65;;;30.90;95.70;;;;;;5025483;28;20052;-55
2023/09/18 13:30:39;;;;;;;28.42;8.20;;;30.80;96.00;;;;;;5032194;28;20044;-55
2023/09/18 13:33:44;;;;;;;34.47;7.88;;;30.00;97.20;;;;;;5029960;28;20048;-52
2023/09/18 13:36:49;;;;;;;28.67;6.88;;;29.60;97.90;;;;;;5024397;28;20048;-57
2023/09/18 13:39:53;;;;;;;29.63;6.40;;;29.10;98.60;;;;;;5033054;28;20044;-52
2023/09/18 13:42:56;;;;;;;27.27;6.28;;;29.40;98.40;;;;;;5032894;28;20092;-56
2023/09/18 13:46:04;;;;;;;31.38;7.93;;;29.80;98.20;;;;;;5031619;28;20404;-50
2023/09/18 13:49:08;;;;;;;36.38;7.30;;;29.90;97.80;;;;;;5031501;28;20534;-55
2023/09/18 13:52:12;;;;;;;35.95;8.50;;;30.00;98.20;;;;;;5029289;28;20041;-54
2023/09/18 13:55:16;;;;;;;29.30;7.15;;;29.90;98.40;;;;;;5024388;28;20041;-53
2023/09/18 13:58:21;;;;;;;27.90;7.30;;;29.60;99.10;;;;;;5031653;28;20396;-57
2023/09/18 14:01:26;;;;;;;31.02;6.93;;;29.90;98.60;;;;;;5029358;28;20045;-53
2023/09/18 14:04:31;;;;;;;32.78;7.70;;;30.40;98.60;;;;;;5025632;28;20506;-57
2023/09/18 14:07:38;;;;;;;34.33;7.88;;;29.90;98.80;;;;;;5030421;28;20040;-53
2023/09/18 14:10:42;;;;;;;35.10;7.72;;;29.70;98.70;;;;;;5022885;28;20052;-58
2023/09/18 14:13:47;;;;;;;50.78;9.35;;;29.50;99.70;;;;;;5030240;28;20049;-52
2023/09/18 14:16:52;;;;;;;47.33;8.68;;;29.10;99.40;;;;;;5030066;28;20053;-58
2023/09/18 14:19:55;;;;;;;39.53;8.00;;;29.00;99.90;;;;;;5027459;28;20049;-55
2023/09/18 14:22:59;;;;;;;29.60;7.55;;;29.10;99.90;;;;;;5031621;28;20060;-58
2023/09/18 14:26:03;;;;;;;34.30;8.23;;;29.60;99.90;;;;;;5030765;28;20043;-56
2023/09/18 14:29:08;;;;;;;33.40;8.23;;;29.80;99.90;;;;;;5024052;28;20040;-55
2023/09/18 14:32:12;;;;;;;29.33;7.68;;;30.30;98.40;;;;;;5031591;28;20503;-56
2023/09/18 14:35:16;;;;;;;33.67;6.80;;;29.20;99.50;;;;;;5030508;28;20055;-55
2023/09/18 14:38:20;;;;;;;36.70;7.82;;;29.00;99.90;;;;;;5030270;28;20048;-56
2023/09/18 14:41:25;;;;;;;31.40;7.95;;;28.80;99.90;;;;;;5031737;28;20048;-54
2023/09/18 14:44:30;;;;;;;33.88;7.05;;;28.40;99.90;;;;;;5027049;28;20052;-59
2023/09/18 14:47:34;;;;;;;37.33;8.68;;;28.40;99.90;;;;;;5026543;28;20040;-51
2023/09/18 14:50:37;;;;;;;33.13;7.75;;;28.40;99.90;;;;;;5029451;28;20037;-54
2023/09/18 14:53:42;;;;;;;23.05;7.10;;;28.10;99.90;;;;;;5030838;28;20052;-55
2023/09/18 14:56:46;;;;;;;31.95;6.82;;;28.30;99.90;;;;;;5027481;28;20044;-53
2023/09/18 14:59:50;;;;;;;28.85;6.85;;;28.20;99.90;;;;;;5030558;28;20044;-57
2023/09/18 15:02:54;;;;;;;34.25;7.43;;;28.40;99.90;;;;;;5030375;28;20041;-54
2023/09/18 15:05:58;;;;;;;27.15;6.75;;;28.50;99.90;;;;;;5026521;28;20040;-54
2023/09/18 15:09:03;;;;;;;29.67;7.45;;;28.10;99.90;;;;;;5034136;28;20053;-54
2023/09/18 15:12:08;;;;;;;27.73;8.55;;;28.10;99.90;;;;;;5034132;28;20045;-56
2023/09/18 15:15:12;;;;;;;27.60;7.80;;;27.90;99.90;;;;;;5025735;28;20040;-54
2023/09/18 15:18:15;;;;;;;30.10;7.60;;;27.90;99.90;;;;;;5034322;28;20048;-57
2023/09/18 15:21:20;;;;;;;24.00;7.03;;;27.80;99.90;;;;;;5034385;28;20064;-52
2023/09/18 15:24:24;;;;;;;29.77;8.80;;;27.60;99.90;;;;;;5030054;28;20400;-51
2023/09/18 15:27:28;;;;;;;30.40;7.72;;;27.60;99.90;;;;;;5034208;28;20040;-53
2023/09/18 15:30:32;;;;;;;42.65;8.30;;;27.60;99.90;;;;;;5034093;28;20040;-53
2023/09/18 15:33:38;;;;;;;36.33;7.75;;;27.70;99.90;;;;;;5030896;28;20052;-51
2023/09/18 15:36:43;;;;;;;35.58;7.65;;;27.80;99.90;;;;;;5033995;28;20048;-53
2023/09/18 15:39:47;;;;;;;41.90;7.70;;;27.80;99.90;;;;;;5033729;28;20040;-52
2023/09/18 15:42:51;;;;;;;50.50;7.90;;;27.70;99.80;;;;;;5030613;28;20514;-53
2023/09/18 15:45:57;;;;;;;53.33;7.70;;;27.80;99.50;;;;;;5033648;28;20052;-53
2023/09/18 15:49:01;;;;;;;41.92;7.40;;;27.80;99.20;;;;;;5033518;28;20040;-52
2023/09/18 15:52:05;;;;;;;36.20;7.05;;;27.90;99.20;;;;;;5025265;28;20044;-55